createdAt,value
2018-11-23T00:01:04.567Z,956.1
2018-11-23T00:04:10.551Z,956.1
2018-11-23T00:07:16.585Z,956.2
2018-11-23T00:10:22.547Z,956.1
2018-11-23T00:13:28.704Z,956.2
2018-11-23T00:16:34.797Z,956.2
2018-11-23T00:19:40.647Z,956.2
2018-11-23T00:22:46.693Z,956.2
2018-11-23T00:25:52.557Z,956.3
2018-11-23T00:28:58.611Z,956.3
2018-11-23T00:32:04.568Z,956.2
2018-11-23T00:35:10.526Z,956.3
2018-11-23T00:38:16.393Z,956.4
2018-11-23T00:41:22.473Z,956.4
2018-11-23T00:44:28.410Z,956.4
2018-11-23T00:47:34.369Z,956.3
2018-11-23T00:50:40.268Z,956.4
2018-11-23T00:53:46.287Z,956.4
2018-11-23T00:56:52.237Z,956.4
2018-11-23T00:59:58.136Z,956.5
2018-11-23T01:03:04.050Z,956.5
2018-11-23T01:06:10.066Z,956.6
2018-11-23T01:09:18.847Z,956.6
2018-11-23T01:12:27.504Z,956.6
2018-11-23T01:15:33.430Z,956.6
2018-11-23T01:18:39.490Z,956.6
2018-11-23T01:21:45.360Z,956.6
2018-11-23T01:24:51.297Z,956.6
2018-11-23T01:27:57.359Z,956.7
2018-11-23T01:31:03.241Z,956.6
2018-11-23T01:34:09.178Z,956.7
2018-11-23T01:37:15.134Z,956.6
2018-11-23T01:40:21.201Z,956.6
2018-11-23T01:43:27.161Z,956.6
2018-11-23T01:46:33.144Z,956.5
2018-11-23T01:49:38.988Z,956.6
2018-11-23T01:52:44.944Z,956.6
2018-11-23T01:55:50.997Z,956.6
2018-11-23T01:58:57.057Z,956.7
2018-11-23T02:02:02.959Z,956.6
2018-11-23T02:05:08.984Z,956.7
2018-11-23T02:08:14.860Z,956.6
2018-11-23T02:11:20.805Z,956.6
2018-11-23T02:14:26.747Z,956.6
2018-11-23T02:17:32.704Z,956.6
2018-11-23T02:20:38.665Z,956.6
2018-11-23T02:23:44.558Z,956.6
2018-11-23T02:26:50.481Z,956.6
2018-11-23T02:29:59.043Z,956.7
2018-11-23T02:33:05.063Z,956.7
2018-11-23T02:36:11.019Z,956.7
2018-11-23T02:39:16.912Z,956.7
2018-11-23T02:42:22.839Z,956.7
2018-11-23T02:45:28.716Z,956.7
2018-11-23T02:48:34.674Z,956.7
2018-11-23T02:51:40.538Z,956.7
2018-11-23T02:54:46.676Z,956.7
2018-11-23T02:57:52.684Z,956.7
2018-11-23T03:00:58.826Z,956.8
2018-11-23T03:04:04.878Z,956.8
2018-11-23T03:07:10.817Z,956.8
2018-11-23T03:10:16.705Z,956.7
2018-11-23T03:13:22.632Z,956.8
2018-11-23T03:16:28.597Z,956.8
2018-11-23T03:19:34.480Z,956.9
2018-11-23T03:22:40.411Z,956.9
2018-11-23T03:25:46.405Z,956.9
2018-11-23T03:28:52.333Z,957
2018-11-23T03:31:58.396Z,957
2018-11-23T03:35:04.602Z,956.9
2018-11-23T03:38:10.622Z,956.9
2018-11-23T03:41:16.497Z,957
2018-11-23T03:44:22.428Z,957
2018-11-23T03:47:28.314Z,956.9
2018-11-23T03:50:39.979Z,957
2018-11-23T03:53:45.955Z,957
2018-11-23T03:56:52.017Z,957
2018-11-23T03:59:57.880Z,956.9
2018-11-23T04:03:03.824Z,956.9
2018-11-23T04:06:09.878Z,956.9
2018-11-23T04:09:15.840Z,956.9
2018-11-23T04:12:21.905Z,956.9
2018-11-23T04:15:27.779Z,957
2018-11-23T04:18:33.775Z,957
2018-11-23T04:21:39.792Z,957.1
2018-11-23T04:24:45.674Z,957
2018-11-23T04:27:51.801Z,957.1
2018-11-23T04:30:57.868Z,957.1
2018-11-23T04:34:03.818Z,957.1
2018-11-23T04:37:09.882Z,957.1
2018-11-23T04:40:15.944Z,957.1
2018-11-23T04:43:21.821Z,957.1
2018-11-23T04:46:27.794Z,957
2018-11-23T04:49:33.872Z,957.1
2018-11-23T04:52:39.752Z,957.1
2018-11-23T04:55:45.738Z,957.1
2018-11-23T04:58:51.693Z,957.1
2018-11-23T05:01:57.704Z,957
2018-11-23T05:05:03.580Z,957.2
2018-11-23T05:08:09.572Z,957.2
2018-11-23T05:11:15.530Z,957.2
2018-11-23T05:14:21.603Z,957.3
2018-11-23T05:17:27.481Z,957.2
2018-11-23T05:20:33.509Z,957.3
2018-11-23T05:23:39.590Z,957.3
2018-11-23T05:26:45.533Z,957.4
2018-11-23T05:29:51.499Z,957.3
2018-11-23T05:32:57.497Z,957.4
2018-11-23T05:36:03.512Z,957.4
2018-11-23T05:39:09.395Z,957.4
2018-11-23T05:42:15.437Z,957.5
2018-11-23T05:45:21.396Z,957.5
2018-11-23T05:48:33.648Z,957.5
2018-11-23T05:51:42.459Z,957.6
2018-11-23T05:54:48.335Z,957.6
2018-11-23T05:57:54.443Z,957.6
2018-11-23T06:01:00.327Z,957.7
2018-11-23T06:04:06.509Z,957.7
2018-11-23T06:07:12.664Z,957.7
2018-11-23T06:10:18.626Z,957.8
2018-11-23T06:13:24.655Z,957.7
2018-11-23T06:16:30.815Z,957.8
2018-11-23T06:19:36.715Z,957.8
2018-11-23T06:22:42.731Z,957.8
2018-11-23T06:25:48.691Z,957.8
2018-11-23T06:28:55.880Z,957.9
2018-11-23T06:32:01.959Z,957.9
2018-11-23T06:35:08.346Z,958
2018-11-23T06:38:14.372Z,958.1
2018-11-23T06:41:20.432Z,958.1
2018-11-23T06:44:26.396Z,958.2
2018-11-23T06:47:32.352Z,958.2
2018-11-23T06:50:38.410Z,958.2
2018-11-23T06:53:44.404Z,958.3
2018-11-23T06:56:50.389Z,958.3
2018-11-23T06:59:56.371Z,958.3
2018-11-23T07:03:02.355Z,958.3
2018-11-23T07:06:08.314Z,958.3
2018-11-23T07:09:15.378Z,958.3
2018-11-23T07:12:21.363Z,958.3
2018-11-23T07:15:27.269Z,958.3
2018-11-23T07:18:33.281Z,958.3
2018-11-23T07:21:39.337Z,958.3
2018-11-23T07:24:45.215Z,958.4
2018-11-23T07:27:51.173Z,958.4
2018-11-23T07:31:03.368Z,958.5
2018-11-23T07:34:09.467Z,958.5
2018-11-23T07:37:16.880Z,958.5
2018-11-23T07:40:23.847Z,958.6
2018-11-23T07:43:29.802Z,958.6
2018-11-23T07:46:36.396Z,958.6
2018-11-23T07:49:42.962Z,958.6
2018-11-23T07:52:50.332Z,958.6
2018-11-23T07:55:59.585Z,958.7
2018-11-23T07:59:06.152Z,958.7
2018-11-23T08:02:12.394Z,958.6
2018-11-23T08:05:18.447Z,958.6
2018-11-23T08:08:24.860Z,958.7
2018-11-23T08:11:31.988Z,958.8
2018-11-23T08:14:37.872Z,958.8
2018-11-23T08:17:43.801Z,958.8
2018-11-23T08:20:49.863Z,958.9
2018-11-23T08:23:55.835Z,958.9
2018-11-23T08:27:01.989Z,958.9
2018-11-23T08:30:08.211Z,958.9
2018-11-23T08:33:14.314Z,958.9
2018-11-23T08:36:21.514Z,959
2018-11-23T08:39:27.419Z,959
2018-11-23T08:42:33.537Z,959
2018-11-23T08:45:39.649Z,958.9
2018-11-23T08:48:46.721Z,958.9
2018-11-23T08:51:52.678Z,958.9
2018-11-23T08:54:58.804Z,958.9
2018-11-23T08:58:05.009Z,958.8
2018-11-23T09:01:11.272Z,958.8
2018-11-23T09:04:17.334Z,958.9
2018-11-23T09:07:23.563Z,958.8
2018-11-23T09:10:29.433Z,958.8
2018-11-23T09:13:35.879Z,958.8
2018-11-23T09:16:41.804Z,958.7
2018-11-23T09:19:48.171Z,958.6
2018-11-23T09:22:55.525Z,958.7
2018-11-23T09:26:01.700Z,958.6
2018-11-23T09:29:08.189Z,958.6
2018-11-23T09:32:14.120Z,958.6
2018-11-23T09:35:22.098Z,958.6
2018-11-23T09:38:28.072Z,958.6
2018-11-23T09:41:34.030Z,958.6
2018-11-23T09:44:40.091Z,958.6
2018-11-23T09:47:46.044Z,958.5
2018-11-23T09:50:52.012Z,958.5
2018-11-23T09:53:58.057Z,958.6
2018-11-23T09:57:04.028Z,958.6
2018-11-23T10:00:11.424Z,958.6
2018-11-23T10:03:17.316Z,958.5
2018-11-23T10:06:23.332Z,958.5
2018-11-23T10:09:29.497Z,958.5
2018-11-23T10:12:35.455Z,958.6
2018-11-23T10:15:41.718Z,958.6
2018-11-23T10:18:47.624Z,958.5
2018-11-23T10:21:53.638Z,958.5
2018-11-23T10:24:59.512Z,958.5
2018-11-23T10:28:05.915Z,958.5
2018-11-23T10:31:12.028Z,958.5
2018-11-23T10:34:18.137Z,958.5
2018-11-23T10:37:24.308Z,958.5
2018-11-23T10:40:30.186Z,958.5
2018-11-23T10:43:36.179Z,958.6
2018-11-23T10:46:42.104Z,958.5
2018-11-23T11:01:45.583Z,958.5
2018-11-23T11:18:14.865Z,958.3
2018-11-23T11:21:20.930Z,958.3
2018-11-23T11:24:28.358Z,958.3
2018-11-23T11:27:34.452Z,958.2
2018-11-23T11:30:40.632Z,958.3
2018-11-23T11:33:46.650Z,958.2
2018-11-23T11:36:52.534Z,958.2
2018-11-23T11:39:58.672Z,958.2
2018-11-23T11:43:04.892Z,958.3
2018-11-23T11:46:11.303Z,958.2
2018-11-23T11:49:17.365Z,958.2
2018-11-23T11:52:23.524Z,958.2
2018-11-23T11:55:29.693Z,958.2
2018-11-23T11:58:35.583Z,958.2
2018-11-23T12:01:41.717Z,958.1
2018-11-23T12:04:47.850Z,958.1
2018-11-23T12:07:57.118Z,958.1
2018-11-23T12:11:04.370Z,958.1
2018-11-23T12:14:11.750Z,958.1
2018-11-23T12:17:20.077Z,958.1
2018-11-23T12:20:30.740Z,958.2
2018-11-23T12:23:40.540Z,958.2
2018-11-23T12:26:47.922Z,958.3
2018-11-23T12:29:53.892Z,958.2
2018-11-23T12:32:59.998Z,958.2
2018-11-23T12:36:06.162Z,958.2
2018-11-23T12:39:12.051Z,958.3
2018-11-23T12:42:18.236Z,958.3
2018-11-23T12:45:24.222Z,958.3
2018-11-23T12:48:30.508Z,958.3
2018-11-23T12:51:38.573Z,958.2
2018-11-23T12:54:45.556Z,958.3
2018-11-23T12:57:52.531Z,958.2
2018-11-23T13:00:58.749Z,958.3
2018-11-23T13:04:04.715Z,958.3
2018-11-23T13:07:10.724Z,958.2
2018-11-23T13:10:16.882Z,958.3
2018-11-23T13:13:22.959Z,958.3
2018-11-23T13:16:29.468Z,958.2
2018-11-23T13:19:36.503Z,958.3
2018-11-23T13:22:43.497Z,958.3
2018-11-23T13:25:51.556Z,958.2
2018-11-23T13:28:58.724Z,958.2
2018-11-23T13:32:21.299Z,958.2
2018-11-23T13:35:27.310Z,958.2
2018-11-23T13:38:33.341Z,958.2
2018-11-23T13:41:39.542Z,958
2018-11-23T13:44:46.649Z,958.1
2018-11-23T13:47:52.668Z,958.1
2018-11-23T13:50:59.034Z,958.1
2018-11-23T13:54:05.038Z,958.2
2018-11-23T13:57:11.206Z,958.1
2018-11-23T14:00:17.471Z,958.1
2018-11-23T14:03:23.654Z,958.1
2018-11-23T14:06:29.885Z,958.1
2018-11-23T14:09:35.924Z,958.1
2018-11-23T14:12:42.394Z,958.1
2018-11-23T14:15:48.336Z,958.1
2018-11-23T14:18:54.454Z,958
2018-11-23T14:22:00.646Z,958.1
2018-11-23T14:25:06.647Z,958.2
2018-11-23T14:28:12.635Z,958.2
2018-11-23T14:31:19.117Z,958
2018-11-23T14:34:25.133Z,958.1
2018-11-23T14:37:31.298Z,958
2018-11-23T14:40:37.262Z,958.1
2018-11-23T14:43:44.240Z,958.2
2018-11-23T14:46:50.396Z,958.2
2018-11-23T14:49:56.357Z,958.1
2018-11-23T14:53:02.480Z,958.2
2018-11-23T14:56:08.515Z,958.2
2018-11-23T14:59:14.544Z,958.2
2018-11-23T15:02:20.445Z,958.2
2018-11-23T15:05:26.675Z,958.2
2018-11-23T15:08:32.566Z,958.3
2018-11-23T15:11:38.727Z,958.3
2018-11-23T15:14:44.725Z,958.3
2018-11-23T15:17:50.891Z,958.3
2018-11-23T15:20:56.871Z,958.4
2018-11-23T15:24:03.039Z,958.4
2018-11-23T15:27:09.103Z,958.5
2018-11-23T15:30:15.066Z,958.4
2018-11-23T15:33:21.125Z,958.4
2018-11-23T15:36:27.103Z,958.5
2018-11-23T15:39:33.139Z,958.4
2018-11-23T15:42:41.205Z,958.5
2018-11-23T15:45:48.185Z,958.6
2018-11-23T15:48:54.059Z,958.6
2018-11-23T15:52:00.222Z,958.6
2018-11-23T15:55:06.686Z,958.5
2018-11-23T15:58:12.893Z,958.5
2018-11-23T16:01:18.834Z,958.5
2018-11-23T16:04:24.919Z,958.5
2018-11-23T16:07:31.283Z,958.6
2018-11-23T16:10:37.405Z,958.6
2018-11-23T16:13:43.633Z,958.7
2018-11-23T16:16:49.666Z,958.7
2018-11-23T16:19:55.626Z,958.7
2018-11-23T16:23:01.686Z,958.8
2018-11-23T16:26:07.678Z,958.8
2018-11-23T16:29:13.616Z,958.7
2018-11-23T16:32:19.552Z,958.8
2018-11-23T16:35:28.337Z,958.8
2018-11-23T16:38:34.354Z,958.7
2018-11-23T16:41:40.455Z,958.8
2018-11-23T16:44:46.587Z,958.7
2018-11-23T16:47:55.361Z,958.7
2018-11-23T16:51:01.397Z,958.8
2018-11-23T16:54:07.558Z,958.8
2018-11-23T16:57:13.485Z,958.8
2018-11-23T17:00:19.558Z,958.8
2018-11-23T17:03:25.616Z,958.9
2018-11-23T17:06:31.673Z,958.9
2018-11-23T17:09:37.558Z,958.9
2018-11-23T17:12:43.487Z,958.8
2018-11-23T17:15:49.551Z,958.9
2018-11-23T17:18:55.565Z,958.9
2018-11-23T17:22:01.491Z,958.9
2018-11-23T17:25:07.435Z,958.9
2018-11-23T17:28:16.266Z,958.9
2018-11-23T17:31:22.218Z,958.9
2018-11-23T17:34:28.177Z,958.9
2018-11-23T17:37:34.230Z,958.9
2018-11-23T17:40:40.395Z,959
2018-11-23T17:43:46.382Z,958.9
2018-11-23T17:46:52.272Z,959
2018-11-23T17:49:58.427Z,959.1
2018-11-23T17:53:04.440Z,959
2018-11-23T17:56:10.424Z,958.9
2018-11-23T17:59:16.520Z,959
2018-11-23T18:02:22.531Z,959.1
2018-11-23T18:05:28.464Z,959
2018-11-23T18:08:39.973Z,959.1
2018-11-23T18:11:45.939Z,959.1
2018-11-23T18:14:51.913Z,959.1
2018-11-23T18:17:57.958Z,959.1
2018-11-23T18:21:03.914Z,959.1
2018-11-23T18:24:09.875Z,959.1
2018-11-23T18:27:15.969Z,959.1
2018-11-23T18:30:22.007Z,959
2018-11-23T18:33:27.994Z,959
2018-11-23T18:36:34.030Z,959
2018-11-23T18:39:40.176Z,959
2018-11-23T18:42:46.243Z,959.1
2018-11-23T18:45:52.296Z,959
2018-11-23T18:48:58.275Z,959.1
2018-11-23T18:52:04.423Z,959
2018-11-23T18:55:13.605Z,959
2018-11-23T18:58:23.917Z,959
2018-11-23T19:01:29.986Z,959
2018-11-23T19:04:36.050Z,959
2018-11-23T19:07:41.986Z,959
2018-11-23T19:10:47.963Z,958.9
2018-11-23T19:13:53.922Z,959
2018-11-23T19:16:59.856Z,959
2018-11-23T19:20:05.836Z,959
2018-11-23T19:23:11.938Z,959.1
2018-11-23T19:26:17.823Z,959.1
2018-11-23T19:29:23.818Z,959
2018-11-23T19:32:29.843Z,959.1
2018-11-23T19:35:35.839Z,959.1
2018-11-23T19:38:41.778Z,959.1
2018-11-23T19:41:47.757Z,959.1
2018-11-23T19:44:53.726Z,959.1
2018-11-23T19:47:59.685Z,959.1
2018-11-23T19:51:05.641Z,959.2
2018-11-23T19:54:11.530Z,959.2
2018-11-23T19:57:17.459Z,959.2
2018-11-23T20:00:23.370Z,959.1
2018-11-23T20:03:29.428Z,959.1
2018-11-23T20:06:36.131Z,959.2
2018-11-23T20:09:48.567Z,959.1
2018-11-23T20:12:54.502Z,959.1
2018-11-23T20:16:00.476Z,959.2
2018-11-23T20:19:06.444Z,959.1
2018-11-23T20:22:12.514Z,959.1
2018-11-23T20:25:18.467Z,959.1
2018-11-23T20:28:24.528Z,959.1
2018-11-23T20:31:30.582Z,959.2
2018-11-23T20:34:36.646Z,959.2
2018-11-23T20:37:42.607Z,959.2
2018-11-23T20:40:48.561Z,959.2
2018-11-23T20:43:56.753Z,959.2
2018-11-23T20:47:02.838Z,959.2
2018-11-23T20:50:08.848Z,959.2
2018-11-23T20:53:14.869Z,959.3
2018-11-23T20:56:20.975Z,959.2
2018-11-23T20:59:26.850Z,959.2
2018-11-23T21:02:32.837Z,959.3
2018-11-23T21:05:38.954Z,959.2
2018-11-23T21:08:45.063Z,959.3
2018-11-23T21:11:50.952Z,959.3
2018-11-23T21:14:56.878Z,959.2
2018-11-23T21:18:03.102Z,959.2
2018-11-23T21:21:09.105Z,959.3
2018-11-23T21:24:15.064Z,959.3
2018-11-23T21:27:21.040Z,959.3
2018-11-23T21:30:26.974Z,959.2
2018-11-23T21:33:33.145Z,959.2
2018-11-23T21:36:39.043Z,959.2
2018-11-23T21:39:44.964Z,959.2
2018-11-23T21:42:50.866Z,959.2
2018-11-23T21:45:56.889Z,959.2
2018-11-23T21:49:02.848Z,959.2
2018-11-23T21:52:08.757Z,959.2
2018-11-23T21:55:14.672Z,959.2
2018-11-23T21:58:20.723Z,959.2
2018-11-23T22:01:26.682Z,959.2
2018-11-23T22:04:32.608Z,959.2
2018-11-23T22:07:38.597Z,959.2
2018-11-23T22:10:44.470Z,959.2
2018-11-23T22:13:50.419Z,959.2
2018-11-23T22:16:56.406Z,959.2
2018-11-23T22:20:02.319Z,959.2
2018-11-23T22:23:08.504Z,959.1
2018-11-23T22:26:14.461Z,959.1
2018-11-23T22:29:20.590Z,959.1
2018-11-23T22:32:26.582Z,959.1
2018-11-23T22:35:32.478Z,959
2018-11-23T22:38:38.498Z,959.1
2018-11-23T22:41:44.457Z,959.1
2018-11-23T22:44:50.522Z,959
2018-11-23T22:47:56.478Z,959.1
2018-11-23T22:51:02.552Z,959.1
2018-11-23T22:54:08.607Z,959.1
2018-11-23T22:57:14.485Z,959.1
2018-11-23T23:00:20.462Z,959.1
2018-11-23T23:03:26.401Z,959.1
2018-11-23T23:06:32.338Z,959.1
2018-11-23T23:09:38.401Z,959.1
2018-11-23T23:12:44.410Z,959.2
2018-11-23T23:15:50.464Z,959.1
2018-11-23T23:18:56.391Z,959.2
2018-11-23T23:22:02.447Z,959.1
2018-11-23T23:25:09.027Z,959.1
2018-11-23T23:28:14.974Z,959.1
2018-11-23T23:31:21.143Z,959.1
2018-11-23T23:34:27.018Z,959.1
2018-11-23T23:37:32.952Z,959.1
2018-11-23T23:40:38.847Z,959.1
2018-11-23T23:43:44.873Z,959.1
2018-11-23T23:46:50.936Z,959.1
2018-11-23T23:49:56.995Z,959.1
2018-11-23T23:53:03.071Z,959.2
2018-11-23T23:56:08.930Z,959.2
2018-11-23T23:59:14.873Z,959.2
